Time;durP1;ratioP1;P1;durP2;ratioP2;P2;SDS_P1;SDS_P2;PMS_P1;PMS_P2;Temp;Humidity;BMP_temperature;BMP_pressure;BME280_temperature;BME280_humidity;BME280_pressure;Samples;Min_cycle;Max_cycle;Signal;HPM_P1;HPM_P2
2023/12/17 00:00:31;;;;;;;16.67;6.70;;;;;;;-1.56;73.86;100236.28;5010182;28;20107;-68
2023/12/17 00:03:03;;;;;;;18.05;6.93;;;;;;;-1.67;73.77;100207.72;4993043;28;20046;-69
2023/12/17 00:05:29;;;;;;;18.27;7.35;;;;;;;-1.59;73.92;100214.88;5008231;28;20048;-66
2023/12/17 00:07:59;;;;;;;16.35;7.22;;;;;;;-2.06;74.14;100131.06;4976821;28;20503;-66
2023/12/17 00:10:27;;;;;;;14.52;6.55;;;;;;;-1.54;74.51;100203.16;4976884;28;20038;-66
2023/12/17 00:12:53;;;;;;;19.00;7.07;;;;;;;-1.46;73.83;100222.28;5000150;28;20042;-65
2023/12/17 00:15:21;;;;;;;18.58;7.15;;;;;;;-1.80;74.05;100153.47;4975454;28;20092;-67
2023/12/17 00:17:49;;;;;;;17.73;7.47;;;;;;;-1.45;73.80;100215.50;4992646;28;20688;-69
2023/12/17 00:20:15;;;;;;;20.00;7.60;;;;;;;-1.62;74.72;100179.84;5008344;28;20046;-65
2023/12/17 00:22:41;;;;;;;21.88;8.20;;;;;;;-1.55;73.90;100184.44;4966845;28;20077;-65
2023/12/17 00:25:13;;;;;;;17.65;8.25;;;;;;;-2.00;74.71;100090.53;4988883;28;20073;-65
2023/12/17 00:27:39;;;;;;;22.90;8.52;;;;;;;-1.67;74.04;100140.50;4983993;28;20085;-67
2023/12/17 00:30:05;;;;;;;21.55;7.82;;;;;;;-1.53;74.53;100153.88;4974352;28;20072;-66
2023/12/17 00:32:37;;;;;;;17.13;7.30;;;;;;;-1.40;74.08;100174.06;4982617;28;20053;-69
2023/12/17 00:35:06;;;;;;;19.58;7.90;;;;;;;-1.29;74.68;100182.22;4962244;28;20038;-68
2023/12/17 00:37:32;;;;;;;23.40;8.63;;;;;;;-1.64;74.03;100122.75;5009337;28;20111;-68
2023/12/17 00:40:03;;;;;;;24.00;8.02;;;;;;;-1.54;74.28;100144.44;5008454;28;20052;-65
2023/12/17 00:42:29;;;;;;;19.77;7.63;;;;;;;-1.50;74.35;100137.84;4982093;28;20796;-66
2023/12/17 00:44:55;;;;;;;18.75;8.23;;;;;;;-1.57;74.52;100118.81;4992697;28;20128;-66
2023/12/17 00:47:22;;;;;;;21.70;8.82;;;;;;;-1.49;74.91;100120.00;5008957;28;20050;-68
2023/12/17 00:49:57;;;;;;;24.42;8.35;;;;;;;-1.47;74.83;100117.56;4980284;28;20045;-66
2023/12/17 00:52:25;;;;;;;26.05;8.98;;;;;;;-1.44;74.66;100107.47;4983880;28;20057;-67
2023/12/17 00:54:51;;;;;;;23.77;7.97;;;;;;;-1.38;74.52;100118.84;4975553;28;20042;-67
2023/12/17 00:57:21;;;;;;;17.55;7.75;;;;;;;-1.39;74.66;100105.97;5008926;28;20100;-67
2023/12/17 00:59:47;;;;;;;21.25;8.20;;;;;;;-1.48;74.84;100085.16;4991580;28;20054;-66
2023/12/17 01:02:15;;;;;;;23.98;9.07;;;;;;;-1.54;74.47;100070.44;5009405;28;20049;-67
2023/12/17 01:04:41;;;;;;;21.83;8.40;;;;;;;-1.26;74.34;100105.72;5009029;28;20037;-67
2023/12/17 01:07:09;;;;;;;22.17;7.90;;;;;;;-1.31;74.59;100094.44;4977314;28;20277;-66
2023/12/17 01:09:37;;;;;;;20.52;7.80;;;;;;;-1.28;74.75;100086.91;4986295;28;20527;-66
2023/12/17 01:12:07;;;;;;;19.90;8.43;;;;;;;-1.48;74.51;100049.44;4984059;28;20053;-66
2023/12/17 01:14:34;;;;;;;17.90;7.18;;;;;;;-1.40;74.27;100061.72;4987958;28;21228;-66
2023/12/17 01:17:02;;;;;;;22.58;7.60;;;;;;;-1.37;74.98;100068.63;5008875;28;20045;-67
2023/12/17 01:19:28;;;;;;;19.45;7.90;;;;;;;-1.43;74.22;100058.13;4985473;28;20045;-67
2023/12/17 01:21:57;;;;;;;16.45;6.93;;;;;;;-1.42;74.91;100065.00;4979636;28;20532;-68
2023/12/17 01:24:23;;;;;;;23.23;8.20;;;;;;;-1.35;74.27;100072.13;4988023;28;20037;-67
2023/12/17 01:26:49;;;;;;;16.30;6.85;;;;;;;-1.39;74.27;100062.56;4991834;28;20057;-69
2023/12/17 01:29:15;;;;;;;16.48;6.25;;;;;;;-1.45;74.54;100044.47;4958846;28;20438;-67
2023/12/17 01:31:41;;;;;;;19.10;8.18;;;;;;;-1.47;74.61;100031.59;4988083;28;20042;-68
2023/12/17 01:34:08;;;;;;;17.42;7.15;;;;;;;-1.33;74.53;100049.22;5008983;28;20045;-68
2023/12/17 01:36:36;;;;;;;16.80;6.50;;;;;;;-1.29;74.47;100056.19;4975093;28;20041;-67
2023/12/17 01:39:02;;;;;;;16.65;6.63;;;;;;;-1.21;74.27;100050.59;4989777;28;20104;-68
2023/12/17 01:41:28;;;;;;;17.77;6.50;;;;;;;-1.11;74.58;100056.09;4991896;28;20045;-67
2023/12/17 01:43:55;;;;;;;15.68;5.80;;;;;;;-1.09;73.84;100052.78;5008164;28;20128;-68
2023/12/17 01:46:22;;;;;;;15.15;6.43;;;;;;;-1.02;74.41;100041.19;4992082;28;20042;-68
2023/12/17 01:48:50;;;;;;;17.90;6.70;;;;;;;-1.16;74.54;100011.63;4974782;28;20056;-68
2023/12/17 01:51:19;;;;;;;15.90;6.32;;;;;;;-1.06;73.81;100019.72;4988401;28;20128;-69
2023/12/17 01:53:45;;;;;;;13.30;6.30;;;;;;;-1.19;74.36;100001.25;4944158;28;20154;-67
2023/12/17 01:56:14;;;;;;;14.70;6.43;;;;;;;-1.19;74.07;99993.59;4971910;28;20038;-68
2023/12/17 01:58:40;;;;;;;16.20;6.60;;;;;;;-1.03;74.04;100018.09;4988707;28;20331;-66
2023/12/17 02:01:07;;;;;;;15.07;5.57;;;;;;;-1.07;73.82;100012.88;4974109;28;20054;-69
2023/12/17 02:03:33;;;;;;;16.27;6.35;;;;;;;-1.26;74.10;99988.25;4970495;28;20049;-68
2023/12/17 02:06:00;;;;;;;16.02;6.63;;;;;;;-1.37;74.24;99956.28;4955499;28;20125;-69
2023/12/17 02:08:32;;;;;;;14.95;6.40;;;;;;;-1.15;73.87;99995.47;4979168;28;20046;-67
2023/12/17 02:10:59;;;;;;;16.77;6.78;;;;;;;-1.32;74.20;99980.34;4971599;28;20136;-68
2023/12/17 02:13:29;;;;;;;16.40;6.60;;;;;;;-1.41;73.90;99968.06;4970630;28;20038;-67
2023/12/17 02:15:55;;;;;;;16.58;6.68;;;;;;;-1.57;73.70;99937.59;4936271;28;20492;-68
2023/12/17 02:18:24;;;;;;;16.27;6.80;;;;;;;-1.39;73.91;99963.00;4963838;28;20133;-67
2023/12/17 02:20:50;;;;;;;16.95;7.20;;;;;;;-1.27;73.87;99966.09;4955121;28;20173;-69
2023/12/17 02:23:20;;;;;;;15.80;6.18;;;;;;;-1.62;73.75;99898.25;4970295;28;20042;-68
2023/12/17 02:25:46;;;;;;;17.58;7.43;;;;;;;-1.09;73.89;99988.94;4990423;28;20061;-68
2023/12/17 02:28:12;;;;;;;15.80;6.68;;;;;;;-1.10;73.50;99973.56;4995310;28;20042;-68
2023/12/17 02:30:38;;;;;;;18.92;6.55;;;;;;;-1.12;73.51;99959.84;4940775;28;20046;-68
2023/12/17 02:33:06;;;;;;;14.02;6.47;;;;;;;-1.19;74.21;99945.06;4974456;28;20034;-68
2023/12/17 02:35:32;;;;;;;16.33;7.40;;;;;;;-1.07;74.26;99978.81;4978312;28;20524;-66
2023/12/17 02:37:58;;;;;;;15.73;6.60;;;;;;;-1.25;73.84;99938.03;4943423;28;20066;-68
2023/12/17 02:40:24;;;;;;;16.80;7.10;;;;;;;-1.25;73.84;99943.16;4991752;28;20108;-67
2023/12/17 02:42:53;;;;;;;18.70;7.65;;;;;;;-1.47;73.66;99898.88;4974602;28;20501;-67
2023/12/17 02:45:22;;;;;;;21.75;7.85;;;;;;;-1.79;74.21;99847.38;4971837;28;20417;-67
2023/12/17 02:47:48;;;;;;;16.20;7.25;;;;;;;-1.13;74.37;99951.34;4958373;28;20492;-67
2023/12/17 02:50:14;;;;;;;18.90;7.95;;;;;;;-1.12;74.40;99945.41;4974366;28;20041;-66
2023/12/17 02:52:43;;;;;;;17.27;7.07;;;;;;;-1.10;73.68;99943.75;4980049;28;20049;-66
2023/12/17 02:55:10;;;;;;;16.45;6.85;;;;;;;-1.08;74.15;99933.63;4994398;28;20045;-66
2023/12/17 02:57:37;;;;;;;19.75;7.18;;;;;;;-1.25;73.98;99894.63;4994127;28;20045;-65
2023/12/17 03:00:03;;;;;;;21.45;8.10;;;;;;;-1.09;73.76;99906.34;4989176;28;20077;-65
2023/12/17 03:02:30;;;;;;;15.70;7.80;;;;;;;-1.12;73.89;99886.66;4993381;28;20046;-67
2023/12/17 03:04:58;;;;;;;20.08;7.07;;;;;;;-0.98;73.95;99894.84;4993974;28;20129;-67
2023/12/17 03:07:24;;;;;;;20.33;7.70;;;;;;;-0.99;73.72;99885.44;4993488;28;20038;-68
2023/12/17 03:09:54;;;;;;;16.00;6.50;;;;;;;-1.09;73.71;99865.47;5010995;28;20081;-67
2023/12/17 03:12:20;;;;;;;21.77;7.47;;;;;;;-1.06;74.45;99876.66;4977639;28;20056;-65
2023/12/17 03:14:49;;;;;;;13.32;6.25;;;;;;;-1.52;73.76;99791.47;4978560;28;20096;-66
2023/12/17 03:17:15;;;;;;;16.02;6.70;;;;;;;-1.90;74.06;99733.78;4974426;28;20041;-66
2023/12/17 03:19:42;;;;;;;15.93;6.97;;;;;;;-1.88;73.87;99732.19;4968059;28;20049;-66
2023/12/17 03:22:12;;;;;;;14.23;6.38;;;;;;;-1.11;73.55;99846.66;5008771;28;20042;-68
2023/12/17 03:24:38;;;;;;;18.77;6.72;;;;;;;-1.06;73.76;99848.56;4977455;28;20169;-69
2023/12/17 03:27:04;;;;;;;14.13;6.18;;;;;;;-1.27;74.09;99830.75;4979598;28;20034;-71
2023/12/17 03:29:30;;;;;;;15.05;6.18;;;;;;;-1.06;73.66;99860.50;4994996;28;20679;-69
2023/12/17 03:32:02;;;;;;;14.80;6.22;;;;;;;-1.08;74.15;99851.88;4976999;28;20073;-68
2023/12/17 03:34:30;;;;;;;16.27;6.15;;;;;;;-1.08;74.39;99842.53;4967296;28;20077;-68
2023/12/17 03:36:59;;;;;;;16.75;6.05;;;;;;;-1.27;74.45;99797.53;4988587;28;20112;-68
2023/12/17 03:39:28;;;;;;;16.63;6.13;;;;;;;-1.28;74.01;99806.00;4977653;28;20448;-69
2023/12/17 03:41:54;;;;;;;10.40;5.07;;;;;;;-1.19;74.01;99833.59;4993966;28;20042;-71
2023/12/17 03:44:20;;;;;;;17.40;6.20;;;;;;;-1.28;73.89;99815.34;4982990;28;20037;-69
2023/12/17 03:46:49;;;;;;;16.02;5.57;;;;;;;-1.34;73.88;99792.16;4976025;28;20132;-70
2023/12/17 03:49:18;;;;;;;15.55;5.82;;;;;;;-1.81;74.05;99723.97;4977852;28;20042;-70
2023/12/17 03:51:47;;;;;;;12.93;5.95;;;;;;;-1.37;74.22;99793.78;4977578;28;20463;-70
2023/12/17 03:54:16;;;;;;;11.70;5.20;;;;;;;-1.91;74.35;99697.22;4958394;28;20046;-69
2023/12/17 03:56:49;;;;;;;15.00;5.97;;;;;;;-1.84;74.33;99726.41;4978005;28;20034;-70
2023/12/17 03:59:17;;;;;;;11.68;5.20;;;;;;;-1.41;74.00;99766.38;4956714;28;20600;-70
2023/12/17 04:01:45;;;;;;;14.07;5.22;;;;;;;-1.46;73.82;99765.31;4971934;28;20221;-69
2023/12/17 04:04:13;;;;;;;14.98;5.50;;;;;;;-1.80;73.83;99709.53;4964816;28;20128;-70
2023/12/17 04:06:43;;;;;;;13.43;6.00;;;;;;;-1.58;74.29;99752.94;4983038;28;20045;-70
2023/12/17 04:09:10;;;;;;;11.15;4.93;;;;;;;-1.68;74.39;99715.13;4957678;28;20113;-71
2023/12/17 04:11:39;;;;;;;14.30;5.43;;;;;;;-1.94;74.61;99660.50;4956910;28;20031;-69
2023/12/17 04:14:07;;;;;;;13.68;5.47;;;;;;;-1.62;74.38;99720.44;4953336;28;20038;-71
2023/12/17 04:16:33;;;;;;;13.05;5.40;;;;;;;-1.82;73.90;99691.63;4976075;28;20046;-71
2023/12/17 04:19:00;;;;;;;12.77;5.57;;;;;;;-1.76;74.43;99699.50;4982177;28;20466;-72
2023/12/17 04:21:26;;;;;;;12.68;5.50;;;;;;;-1.69;74.26;99714.25;4994057;28;20035;-72
2023/12/17 04:23:55;;;;;;;14.00;6.00;;;;;;;-1.80;74.37;99677.25;4977347;28;20133;-71
2023/12/17 04:26:21;;;;;;;12.13;4.82;;;;;;;-1.51;74.47;99725.97;4939459;28;20067;-70
2023/12/17 04:28:47;;;;;;;14.25;5.75;;;;;;;-2.06;74.15;99637.94;4981361;28;20045;-69
2023/12/17 04:31:13;;;;;;;10.82;5.32;;;;;;;-1.59;73.75;99700.16;4983379;28;20034;-71
2023/12/17 04:33:44;;;;;;;13.93;5.65;;;;;;;-1.87;74.35;99652.28;4960726;28;20497;-71
2023/12/17 04:36:10;;;;;;;13.02;5.13;;;;;;;-1.59;74.29;99707.81;4972646;28;20046;-70
2023/12/17 04:38:36;;;;;;;12.93;5.97;;;;;;;-1.73;74.05;99673.25;4977570;28;20456;-70
2023/12/17 04:41:02;;;;;;;12.05;4.93;;;;;;;-1.77;74.42;99663.72;4980731;28;20034;-71
2023/12/17 04:43:28;;;;;;;13.25;5.55;;;;;;;-1.53;74.85;99699.50;4955657;28;20039;-71
2023/12/17 04:45:57;;;;;;;14.50;5.20;;;;;;;-1.76;74.64;99655.25;4995815;28;20038;-72
2023/12/17 04:48:23;;;;;;;12.38;5.55;;;;;;;-1.48;74.31;99680.13;4970275;28;20042;-73
2023/12/17 04:50:49;;;;;;;15.20;6.00;;;;;;;-1.71;74.74;99624.00;4994255;28;20080;-73
2023/12/17 04:53:16;;;;;;;14.80;5.05;;;;;;;-1.47;74.13;99664.00;5005150;28;20042;-73
2023/12/17 04:55:46;;;;;;;10.18;5.00;;;;;;;-1.61;74.41;99643.06;5015735;28;20037;-72
2023/12/17 04:58:14;;;;;;;10.45;4.65;;;;;;;-1.46;75.15;99644.47;5014641;28;20038;-73
2023/12/17 05:00:40;;;;;;;10.95;5.25;;;;;;;-1.44;74.60;99638.59;5011800;28;20060;-72
2023/12/17 05:03:09;;;;;;;14.10;5.75;;;;;;;-1.72;74.72;99580.56;4995649;28;20045;-73
2023/12/17 05:05:35;;;;;;;13.73;5.30;;;;;;;-1.61;74.36;99588.63;4981150;28;20480;-71
2023/12/17 05:08:04;;;;;;;13.20;5.38;;;;;;;-1.40;74.30;99614.94;4980430;28;20115;-72
2023/12/17 05:10:31;;;;;;;13.50;5.80;;;;;;;-1.67;74.32;99561.22;4980728;28;20042;-72
2023/12/17 05:12:59;;;;;;;9.18;4.65;;;;;;;-1.60;73.96;99595.47;4991001;28;20037;-72
2023/12/17 05:15:25;;;;;;;12.05;5.93;;;;;;;-1.82;74.70;99541.09;4995852;28;20042;-71
2023/12/17 05:17:51;;;;;;;11.40;5.60;;;;;;;-1.65;74.13;99566.34;5010624;28;20049;-68
2023/12/17 05:20:18;;;;;;;18.05;4.90;;;;;;;-2.07;73.82;99483.19;4961187;28;20046;-70
2023/12/17 05:22:44;;;;;;;13.32;5.20;;;;;;;-1.59;74.45;99541.91;4978081;28;20128;-70
2023/12/17 05:25:10;;;;;;;11.95;5.40;;;;;;;-1.46;74.05;99552.59;5014620;28;20041;-70
2023/12/17 05:27:39;;;;;;;10.95;4.70;;;;;;;-1.45;73.94;99546.66;4994466;28;20109;-71
2023/12/17 05:30:06;;;;;;;10.85;4.70;;;;;;;-1.48;74.75;99541.44;5013989;28;20038;-71
2023/12/17 05:32:32;;;;;;;12.32;5.03;;;;;;;-1.86;74.33;99478.88;4997906;28;20128;-69
2023/12/17 05:34:58;;;;;;;11.80;4.90;;;;;;;-1.58;73.84;99533.44;5015099;28;20519;-69
2023/12/17 05:37:24;;;;;;;10.07;4.75;;;;;;;-1.61;74.58;99512.91;4981820;28;20037;-70
2023/12/17 05:39:50;;;;;;;11.57;4.90;;;;;;;-1.80;74.43;99473.16;4979733;28;20038;-70
2023/12/17 05:42:17;;;;;;;12.55;4.82;;;;;;;-1.53;73.99;99514.06;5014796;28;20033;-70
2023/12/17 05:44:43;;;;;;;9.10;4.00;;;;;;;-1.64;73.79;99500.03;4990486;28;20036;-70
2023/12/17 05:47:09;;;;;;;10.25;4.40;;;;;;;-1.93;73.95;99466.72;5015315;28;20069;-73
2023/12/17 05:49:42;;;;;;;9.98;4.88;;;;;;;-1.93;73.82;99466.72;5013251;28;20100;-71
2023/12/17 05:52:08;;;;;;;9.98;4.05;;;;;;;-2.29;73.76;99408.47;4995942;28;20132;-71
2023/12/17 05:54:34;;;;;;;8.98;4.15;;;;;;;-2.02;74.17;99451.09;4963911;28;20073;-71
2023/12/17 05:57:03;;;;;;;7.65;4.07;;;;;;;-1.98;74.29;99452.94;4987161;28;20140;-68
2023/12/17 05:59:29;;;;;;;9.15;4.10;;;;;;;-2.53;74.12;99360.88;4981007;28;20034;-71
2023/12/17 06:01:55;;;;;;;9.60;4.57;;;;;;;-2.09;73.76;99428.72;5013598;28;20132;-71
2023/12/17 06:04:27;;;;;;;10.70;4.22;;;;;;;-2.08;73.95;99417.69;4994726;28;20041;-73
2023/12/17 06:06:58;;;;;;;10.20;3.65;;;;;;;-2.05;73.13;99438.22;4980162;28;20041;-71
2023/12/17 06:09:24;;;;;;;9.60;4.15;;;;;;;-2.36;74.46;99384.44;5012264;28;20041;-71
2023/12/17 06:11:51;;;;;;;9.93;4.10;;;;;;;-1.94;73.80;99438.59;4981403;28;20053;-70
2023/12/17 06:14:17;;;;;;;9.52;3.47;;;;;;;-2.15;74.25;99394.56;4981586;28;20092;-70
2023/12/17 06:16:46;;;;;;;7.32;3.53;;;;;;;-2.09;74.38;99403.22;4980043;28;20046;-69
2023/12/17 06:19:13;;;;;;;8.10;3.75;;;;;;;-2.25;73.92;99351.69;4996599;28;20033;-71
2023/12/17 06:21:39;;;;;;;13.30;4.10;;;;;;;-2.05;74.17;99383.00;5013140;28;20576;-71
2023/12/17 06:24:07;;;;;;;6.80;3.25;;;;;;;-1.96;73.79;99402.84;4980066;28;20042;-70
2023/12/17 06:26:37;;;;;;;8.55;3.72;;;;;;;-2.08;73.58;99384.56;4986025;28;20088;-69
2023/12/17 06:29:04;;;;;;;7.40;3.38;;;;;;;-2.34;73.50;99359.03;4993453;28;20536;-69
2023/12/17 06:31:38;;;;;;;6.90;3.70;;;;;;;-2.41;74.27;99347.72;4976114;28;20037;-69
2023/12/17 06:34:04;;;;;;;6.10;3.22;;;;;;;-2.10;73.96;99391.31;4993338;28;20068;-70
2023/12/17 06:36:36;;;;;;;7.05;2.97;;;;;;;-2.28;73.69;99346.47;4973319;28;20034;-69
2023/12/17 06:39:02;;;;;;;;;;;;;;;-2.09;74.29;99370.06;4981905;28;20046;-69
2023/12/17 06:41:28;;;;;;;8.90;3.35;;;;;;;-2.20;74.31;99355.28;4995702;28;19972;-68
2023/12/17 06:43:55;;;;;;;6.03;3.00;;;;;;;-2.29;74.27;99325.22;4975722;28;20041;-70
2023/12/17 06:46:22;;;;;;;5.47;3.05;;;;;;;-2.22;74.53;99320.34;4990472;28;20042;-70
2023/12/17 06:48:50;;;;;;;7.57;3.53;;;;;;;-1.97;73.92;99329.69;4978684;28;20045;-70
2023/12/17 06:51:19;;;;;;;6.68;3.20;;;;;;;-2.25;73.87;99277.75;4979832;28;20046;-71
2023/12/17 06:53:45;;;;;;;6.35;3.20;;;;;;;-2.04;74.20;99326.09;4964398;28;20050;-70
2023/12/17 06:56:13;;;;;;;6.60;2.97;;;;;;;-2.03;73.46;99314.19;4961690;28;20442;-71
2023/12/17 06:58:40;;;;;;;7.72;3.28;;;;;;;-2.31;73.97;99260.56;4983075;28;20042;-72
2023/12/17 07:01:09;;;;;;;7.80;3.05;;;;;;;-2.34;73.94;99251.97;4968307;28;20038;-70
2023/12/17 07:03:35;;;;;;;6.40;2.90;;;;;;;-2.09;74.00;99271.50;4977873;28;20072;-70
2023/12/17 07:06:12;;;;;;;5.60;2.60;;;;;;;-1.99;74.09;99282.88;4967577;28;20034;-73
2023/12/17 07:08:44;;;;;;;6.35;2.55;;;;;;;-1.99;74.18;99254.81;4966678;28;20049;-72
2023/12/17 07:11:18;;;;;;;3.85;1.95;;;;;;;-1.74;74.16;99287.09;4978382;28;20097;-72
2023/12/17 07:13:49;;;;;;;4.70;1.88;;;;;;;-1.92;73.81;99227.81;4943088;28;20069;-71
2023/12/17 07:16:28;;;;;;;6.63;3.30;;;;;;;-2.56;73.68;99128.94;4959966;28;20076;-70
2023/12/17 07:18:57;;;;;;;5.97;2.80;;;;;;;-1.74;73.27;99253.06;4994893;28;20034;-72
2023/12/17 07:21:38;;;;;;;7.20;2.35;;;;;;;-1.80;73.41;99227.34;4979034;28;20049;-69
2023/12/17 07:24:04;;;;;;;6.18;2.50;;;;;;;-2.04;73.97;99165.44;4991652;28;20034;-70
2023/12/17 07:26:33;;;;;;;2.95;1.70;;;;;;;-2.19;73.25;99114.81;4992953;28;20042;-72
2023/12/17 07:29:08;;;;;;;8.07;3.55;;;;;;;-2.10;74.07;99106.59;4961572;28;20042;-73
2023/12/17 07:31:44;;;;;;;7.47;3.10;;;;;;;-2.35;73.37;99026.81;4976187;28;20053;-73
2023/12/17 07:34:17;;;;;;;6.13;2.25;;;;;;;-1.66;73.36;99118.97;4985709;28;20073;-71
2023/12/17 07:36:47;;;;;;;8.15;3.03;;;;;;;-1.82;73.09;99071.72;4952431;28;20047;-71
2023/12/17 07:39:14;;;;;;;5.82;2.60;;;;;;;-1.79;73.41;99076.91;4968133;28;20042;-69
2023/12/17 07:41:49;;;;;;;9.52;3.78;;;;;;;-2.36;73.55;98968.16;4955138;28;20554;-71
2023/12/17 07:44:48;;;;;;;5.88;2.65;;;;;;;-1.12;73.98;99155.34;4987687;28;20031;-76
2023/12/17 07:47:35;;;;;;;5.35;2.25;;;;;;;-1.12;73.60;99157.91;4981970;28;20109;-71
2023/12/17 07:50:03;;;;;;;3.30;1.95;;;;;;;-1.34;73.80;99113.91;4967766;28;20064;-69
2023/12/17 07:52:30;;;;;;;6.07;2.35;;;;;;;-1.22;73.64;99138.91;4970549;28;20126;-70
2023/12/17 07:55:17;;;;;;;6.03;2.13;;;;;;;-1.22;74.02;99129.56;5003430;28;20061;-68
2023/12/17 07:57:44;;;;;;;16.88;5.07;;;;;;;-1.45;73.84;99072.75;5003847;28;20122;-74
2023/12/17 08:00:38;;;;;;;13.50;4.68;;;;;;;-1.55;73.36;99035.91;4989876;28;20033;-71
2023/12/17 08:03:05;;;;;;;6.30;2.45;;;;;;;-1.10;73.77;99107.75;4999478;28;20448;-71
2023/12/17 08:05:31;;;;;;;4.20;1.90;;;;;;;-1.78;73.70;98970.63;5014791;28;20049;-76
2023/12/17 08:08:01;;;;;;;3.80;2.00;;;;;;;-1.12;73.57;99094.06;5019851;28;20072;-70
2023/12/17 08:10:30;;;;;;;7.03;2.30;;;;;;;-1.53;73.93;99003.63;4987678;28;20133;-71
2023/12/17 08:13:02;;;;;;;7.60;3.08;;;;;;;-1.15;73.59;99053.13;4982881;28;20084;-69
2023/12/17 08:15:31;;;;;;;17.65;5.45;;;;;;;-1.13;74.19;99039.59;5007804;28;20041;-69
2023/12/17 08:18:17;;;;;;;11.00;3.67;;;;;;;-0.98;73.85;99059.53;5019935;28;20082;-70
2023/12/17 08:20:46;;;;;;;12.32;3.72;;;;;;;-1.33;73.98;98998.19;4982838;28;20038;-72
2023/12/17 08:23:13;;;;;;;5.55;1.73;;;;;;;-0.94;73.99;99052.81;5004691;28;20527;-70
2023/12/17 08:25:39;;;;;;;7.63;2.30;;;;;;;-1.32;74.23;98966.75;5003767;28;20041;-70
2023/12/17 08:28:16;;;;;;;8.52;2.92;;;;;;;-1.25;73.95;98981.41;4979699;28;20038;-70
2023/12/17 08:30:45;;;;;;;6.93;2.63;;;;;;;-1.06;73.98;98981.84;4972718;28;20048;-67
2023/12/17 08:33:11;;;;;;;19.88;5.60;;;;;;;-0.87;74.22;99012.97;5004541;28;20065;-69
2023/12/17 08:35:39;;;;;;;3.35;2.00;;;;;;;-0.87;74.27;98988.25;4972520;28;20081;-69
2023/12/17 08:38:18;;;;;;;22.17;6.13;;;;;;;-0.83;74.81;98992.63;5010680;28;20452;-73
2023/12/17 08:40:54;;;;;;;3.05;1.48;;;;;;;-1.16;74.82;98944.13;5004960;28;20045;-68
2023/12/17 08:43:22;;;;;;;11.27;3.63;;;;;;;-1.57;74.52;98868.28;5018001;28;20041;-70
2023/12/17 08:45:47;;;;;;;11.50;3.95;;;;;;;-0.67;74.80;99005.78;4987250;28;20064;-75
2023/12/17 08:48:13;;;;;;;18.35;5.53;;;;;;;-0.94;75.04;98964.25;4987286;28;20046;-69
2023/12/17 08:50:39;;;;;;;17.80;4.63;;;;;;;-0.92;75.22;98957.50;4996852;28;20073;-70
2023/12/17 08:53:06;;;;;;;9.38;3.03;;;;;;;-1.33;75.13;98885.88;4999217;28;20516;-70
2023/12/17 08:55:44;;;;;;;10.32;4.22;;;;;;;-1.29;75.49;98880.03;4984846;28;20049;-68
2023/12/17 08:58:10;;;;;;;5.20;2.10;;;;;;;-1.03;75.57;98910.44;4998930;28;20041;-70
2023/12/17 09:00:38;;;;;;;14.27;4.72;;;;;;;-0.62;75.57;98976.06;5019774;28;20041;-68
2023/12/17 09:03:05;;;;;;;4.18;1.60;;;;;;;-0.89;75.80;98918.41;4992665;28;20480;-68
2023/12/17 09:05:49;;;;;;;10.45;2.75;;;;;;;-0.71;75.59;98932.44;4986795;28;20465;-70
2023/12/17 09:08:21;;;;;;;6.50;2.45;;;;;;;-0.71;75.68;98946.06;5003277;28;20017;-70
2023/12/17 09:10:50;;;;;;;13.55;4.75;;;;;;;-1.06;75.89;98872.91;4997537;28;20049;-69
2023/12/17 09:13:17;;;;;;;9.55;3.55;;;;;;;-0.90;75.39;98880.94;5003339;28;20067;-69
2023/12/17 09:15:49;;;;;;;11.88;3.75;;;;;;;-0.95;76.06;98860.38;5015107;28;20041;-68
2023/12/17 09:18:16;;;;;;;19.52;5.55;;;;;;;-0.79;75.70;98884.56;5016919;28;20041;-72
2023/12/17 09:20:43;;;;;;;19.30;5.63;;;;;;;-0.82;75.59;98873.44;4990386;28;20512;-69
2023/12/17 09:23:09;;;;;;;8.30;3.38;;;;;;;-0.84;75.75;98858.06;4968288;28;20045;-71
2023/12/17 09:25:37;;;;;;;8.45;3.17;;;;;;;-1.04;75.48;98813.31;4996969;28;20060;-68
2023/12/17 09:28:05;;;;;;;8.45;2.55;;;;;;;-1.01;75.61;98800.63;4995182;28;20479;-71
2023/12/17 09:30:36;;;;;;;5.05;2.03;;;;;;;-0.58;76.09;98869.69;4975880;28;20088;-71
2023/12/17 09:33:06;;;;;;;5.68;2.72;;;;;;;-0.54;76.01;98863.78;5017358;28;20046;-74
2023/12/17 09:35:37;;;;;;;8.27;2.97;;;;;;;-1.18;76.06;98764.50;4985063;28;20114;-73
2023/12/17 09:39:04;;;;;;;19.20;4.90;;;;;;;-1.75;76.13;98665.44;4985011;28;20044;-76
2023/12/17 09:41:36;;;;;;;6.10;2.08;;;;;;;-0.77;76.25;98795.16;4985396;28;20124;-69
2023/12/17 09:44:07;;;;;;;5.80;2.73;;;;;;;-1.38;76.14;98701.13;4986122;28;20034;-71
2023/12/17 09:46:36;;;;;;;24.60;8.13;;;;;;;-0.87;76.05;98760.91;5019701;28;20065;-71
2023/12/17 09:49:17;;;;;;;23.40;7.60;;;;;;;-1.57;76.27;98639.47;5001503;28;20128;-72
2023/12/17 09:54:52;;;;;;;15.02;5.05;;;;;;;-0.63;76.74;98778.44;5014571;28;20068;-74
2023/12/17 09:57:55;;;;;;;15.25;3.40;;;;;;;-1.68;76.28;98570.38;4994073;28;20046;-74
2023/12/17 10:00:21;;;;;;;11.65;3.65;;;;;;;-0.91;76.79;98718.28;5004265;28;20049;-71
2023/12/17 10:03:49;;;;;;;14.02;4.88;;;;;;;0.13;77.04;98843.78;4990008;28;20038;-78
2023/12/17 10:06:20;;;;;;;12.48;4.22;;;;;;;-0.34;77.51;98747.47;4990044;28;20038;-70
2023/12/17 10:08:50;;;;;;;15.60;5.30;;;;;;;-0.39;77.50;98741.41;4972010;28;20037;-70
2023/12/17 10:11:32;;;;;;;5.28;2.10;;;;;;;0.02;77.53;98786.44;4983501;28;20038;-73
2023/12/17 10:14:05;;;;;;;13.98;4.57;;;;;;;-1.18;77.72;98599.44;5002358;28;20207;-71
2023/12/17 10:16:33;;;;;;;15.20;3.42;;;;;;;-0.65;78.43;98648.91;5019911;28;20109;-76
2023/12/17 10:18:59;;;;;;;10.10;3.03;;;;;;;0.43;78.88;98836.59;5001186;28;20595;-68
2023/12/17 10:21:26;;;;;;;11.20;3.72;;;;;;;0.21;78.42;98805.53;5010242;28;20076;-68
2023/12/17 10:23:55;;;;;;;10.45;4.40;;;;;;;-0.17;78.87;98727.28;5010267;28;20073;-66
2023/12/17 10:26:28;;;;;;;12.90;4.05;;;;;;;-0.22;78.31;98705.03;4983938;28;20577;-67
2023/12/17 10:28:58;;;;;;;10.07;3.60;;;;;;;0.50;78.65;98825.63;5014054;28;20061;-67
2023/12/17 10:31:31;;;;;;;9.45;3.83;;;;;;;-0.10;78.22;98742.75;4982892;28;20050;-70
2023/12/17 10:34:12;;;;;;;10.97;4.30;;;;;;;0.33;78.23;98815.09;4967459;28;20137;-69
2023/12/17 10:36:39;;;;;;;10.15;2.97;;;;;;;0.40;78.26;98823.75;4997719;28;20574;-68
2023/12/17 10:39:08;;;;;;;7.15;3.13;;;;;;;-0.16;78.12;98725.59;4980572;28;20034;-70
2023/12/17 10:41:43;;;;;;;6.78;3.53;;;;;;;0.51;78.81;98835.03;4994608;28;20041;-70
2023/12/17 10:44:33;;;;;;;10.90;3.92;;;;;;;0.48;78.44;98814.50;5002487;28;20038;-71
2023/12/17 10:47:05;;;;;;;8.55;3.38;;;;;;;0.54;78.62;98827.41;5004229;28;20046;-68
2023/12/17 10:49:40;;;;;;;5.88;2.55;;;;;;;0.43;78.58;98788.84;5001197;28;20046;-70
2023/12/17 10:52:08;;;;;;;10.20;3.67;;;;;;;0.23;78.45;98762.03;5018987;28;20263;-69
2023/12/17 10:54:35;;;;;;;9.18;3.47;;;;;;;-0.46;78.71;98657.75;5022666;28;20038;-68
2023/12/17 10:57:14;;;;;;;7.80;3.03;;;;;;;0.51;78.87;98816.25;5020571;28;20045;-69
2023/12/17 10:59:54;;;;;;;8.40;2.55;;;;;;;0.46;78.55;98788.00;5019459;28;20045;-67
2023/12/17 11:02:37;;;;;;;6.78;2.30;;;;;;;0.08;78.59;98729.41;5021359;28;20067;-66
2023/12/17 11:05:06;;;;;;;8.98;2.58;;;;;;;0.56;78.95;98830.81;4986593;28;20044;-67
2023/12/17 11:07:33;;;;;;;4.18;2.00;;;;;;;0.64;78.80;98830.09;5001871;28;20050;-67
2023/12/17 11:10:29;;;;;;;4.70;2.10;;;;;;;0.65;78.99;98836.94;4976235;28;20038;-67
2023/12/17 11:13:04;;;;;;;5.38;2.20;;;;;;;0.55;79.37;98816.31;4997077;28;20037;-66
2023/12/17 11:15:31;;;;;;;9.38;3.33;;;;;;;0.39;79.24;98794.75;5017642;28;20045;-66
2023/12/17 11:56:35;;;;;;;11.10;3.22;;;;;;;0.50;79.88;98760.75;5037495;28;20049;-66
2023/12/17 11:59:01;;;;;;;6.88;2.67;;;;;;;1.01;79.52;98843.44;5030550;28;20515;-62
2023/12/17 12:01:27;;;;;;;4.15;1.85;;;;;;;0.94;79.61;98826.28;5019123;28;20039;-65
2023/12/17 12:04:00;;;;;;;5.88;2.10;;;;;;;1.28;79.62;98866.06;5019390;28;20045;-64
2023/12/17 12:06:29;;;;;;;2.00;1.40;;;;;;;0.99;79.76;98815.25;5020005;28;20064;-62
2023/12/17 12:09:38;;;;;;;3.38;1.70;;;;;;;1.40;79.71;98885.00;4992531;28;20051;-60
2023/12/17 12:12:16;;;;;;;;;;;;;;;1.44;79.71;98879.06;5032365;28;20064;-63
2023/12/17 12:14:49;;;;;;;3.95;1.75;;;;;;;0.70;79.40;98772.16;5021057;28;19924;-65
2023/12/17 12:17:48;;;;;;;2.78;1.40;;;;;;;1.48;79.97;98881.69;5020240;28;20041;-64
2023/12/17 12:20:37;;;;;;;2.80;1.48;;;;;;;1.23;80.30;98836.06;5011116;28;20460;-64
2023/12/17 12:23:10;;;;;;;2.30;1.40;;;;;;;0.85;80.01;98779.19;5005386;28;20037;-67